GCATL EGBO-EGTE
Flight info
| Callsign | GCATL |
|---|---|
| Flight time | N/A |
| Altitude | 2300 |
| Route | EGBO VP191 VP156 VP128 VP102 VP092 EGTE |
| Aircraft | C172/L-SG/L |
Departure
| Time | 2026-05-07 19:22 |
|---|---|
| Airport | Wolverhampton Halfpenny Green Airport (EGBO) |
Arrival
| Time | N/A |
|---|---|
| Airport | Exeter International Airport (EGTE) |
| Time | Latitude | Longitude | Altitude | Speed | Heading |
|---|---|---|---|---|---|
| 2026-05-07 19:07 | 52.51384 | -2.26052 | 282 ft | 0 kts | 292° |
| 2026-05-07 19:14 | 52.51391 | -2.26075 | 281 ft | 4 kts | 307° |
| 2026-05-07 19:15 | 52.51417 | -2.26093 | 281 ft | 4 kts | 357° |
| 2026-05-07 19:15 | 52.51443 | -2.26062 | 280 ft | 6 kts | 117° |
| 2026-05-07 19:15 | 52.51407 | -2.26025 | 281 ft | 6 kts | 159° |
| 2026-05-07 19:15 | 52.51367 | -2.25998 | 282 ft | 6 kts | 156° |
| 2026-05-07 19:16 | 52.51324 | -2.25966 | 283 ft | 7 kts | 158° |
| 2026-05-07 19:16 | 52.51282 | -2.25905 | 283 ft | 9 kts | 113° |
| 2026-05-07 19:16 | 52.51253 | -2.25794 | 283 ft | 11 kts | 109° |
| 2026-05-07 19:16 | 52.51250 | -2.25660 | 284 ft | 12 kts | 77° |
| 2026-05-07 19:17 | 52.51277 | -2.25526 | 286 ft | 12 kts | 69° |
| 2026-05-07 19:17 | 52.51321 | -2.25396 | 286 ft | 13 kts | 41° |
| 2026-05-07 19:17 | 52.51369 | -2.25345 | 286 ft | 0 kts | 19° |
| 2026-05-07 19:19 | 52.51371 | -2.25345 | 286 ft | 0 kts | 18° |
| 2026-05-07 19:20 | 52.51384 | -2.25338 | 286 ft | 3 kts | 17° |
| 2026-05-07 19:20 | 52.51428 | -2.25325 | 286 ft | 8 kts | 2° |
| 2026-05-07 19:20 | 52.51500 | -2.25343 | 286 ft | 12 kts | 340° |
| 2026-05-07 19:20 | 52.51593 | -2.25392 | 285 ft | 14 kts | 344° |
| 2026-05-07 19:21 | 52.51630 | -2.25511 | 283 ft | 11 kts | 278° |
| 2026-05-07 19:21 | 52.51644 | -2.25699 | 282 ft | 35 kts | 276° |
| 2026-05-07 19:21 | 52.51694 | -2.26340 | 328 ft | 66 kts | 275° |
| 2026-05-07 19:21 | 52.51771 | -2.27088 | 512 ft | 67 kts | 279° |
| 2026-05-07 19:22 | 52.51884 | -2.27832 | 660 ft | 72 kts | 282° |
| 2026-05-07 19:22 | 52.51965 | -2.28677 | 803 ft | 77 kts | 251° |
| 2026-05-07 19:22 | 52.51641 | -2.29294 | 1023 ft | 70 kts | 200° |
| 2026-05-07 19:22 | 52.51173 | -2.29196 | 1224 ft | 69 kts | 161° |
| 2026-05-07 19:23 | 52.50693 | -2.28935 | 1368 ft | 75 kts | 163° |
| 2026-05-07 19:23 | 52.50190 | -2.28643 | 1525 ft | 79 kts | 163° |
| 2026-05-07 19:23 | 52.49650 | -2.28382 | 1665 ft | 83 kts | 166° |
| 2026-05-07 19:23 | 52.49077 | -2.28104 | 1766 ft | 89 kts | 168° |
| 2026-05-07 19:24 | 52.48444 | -2.27996 | 1824 ft | 94 kts | 186° |
| 2026-05-07 19:24 | 52.47784 | -2.28097 | 1888 ft | 97 kts | 187° |
| 2026-05-07 19:24 | 52.47102 | -2.28226 | 1914 ft | 98 kts | 190° |
| 2026-05-07 19:24 | 52.46424 | -2.28390 | 1913 ft | 100 kts | 193° |
| 2026-05-07 19:25 | 52.45740 | -2.28657 | 1920 ft | 102 kts | 195° |
| 2026-05-07 19:25 | 52.45062 | -2.28961 | 1942 ft | 101 kts | 195° |
| 2026-05-07 19:25 | 52.44378 | -2.29254 | 1949 ft | 101 kts | 193° |
| 2026-05-07 19:25 | 52.43693 | -2.29524 | 1910 ft | 103 kts | 194° |
| 2026-05-07 19:26 | 52.42999 | -2.29794 | 1895 ft | 102 kts | 193° |
| 2026-05-07 19:26 | 52.42304 | -2.30072 | 1870 ft | 102 kts | 194° |
| 2026-05-07 19:26 | 52.41627 | -2.30374 | 1862 ft | 101 kts | 194° |
| 2026-05-07 19:26 | 52.40946 | -2.30642 | 1878 ft | 100 kts | 193° |
| 2026-05-07 19:27 | 52.40266 | -2.30923 | 1870 ft | 100 kts | 194° |
| 2026-05-07 19:27 | 52.39597 | -2.31216 | 1894 ft | 99 kts | 195° |
| 2026-05-07 19:27 | 52.38931 | -2.31545 | 1910 ft | 98 kts | 196° |
| 2026-05-07 19:27 | 52.38276 | -2.31846 | 1931 ft | 98 kts | 193° |
| 2026-05-07 19:28 | 52.37611 | -2.32090 | 1955 ft | 97 kts | 193° |
| 2026-05-07 19:28 | 52.36962 | -2.32385 | 1965 ft | 97 kts | 196° |
| 2026-05-07 19:28 | 52.36327 | -2.32776 | 1969 ft | 98 kts | 200° |
| 2026-05-07 19:28 | 52.35671 | -2.33079 | 1983 ft | 97 kts | 194° |
| 2026-05-07 19:29 | 52.35014 | -2.33360 | 2005 ft | 97 kts | 196° |
| 2026-05-07 19:29 | 52.34363 | -2.33654 | 2032 ft | 98 kts | 195° |
| 2026-05-07 19:29 | 52.33694 | -2.33906 | 2051 ft | 99 kts | 192° |
| 2026-05-07 19:29 | 52.33024 | -2.34141 | 2083 ft | 99 kts | 193° |
| 2026-05-07 19:30 | 52.32354 | -2.34440 | 2091 ft | 100 kts | 198° |
| 2026-05-07 19:30 | 52.31693 | -2.34797 | 2088 ft | 102 kts | 198° |
| 2026-05-07 19:30 | 52.31002 | -2.35143 | 2036 ft | 106 kts | 195° |
| 2026-05-07 19:30 | 52.30307 | -2.35448 | 2070 ft | 102 kts | 194° |
| 2026-05-07 19:31 | 52.29625 | -2.35736 | 2116 ft | 99 kts | 190° |
| 2026-05-07 19:31 | 52.28947 | -2.35952 | 2132 ft | 100 kts | 192° |
| 2026-05-07 19:31 | 52.28265 | -2.36187 | 2140 ft | 100 kts | 192° |
| 2026-05-07 19:31 | 52.27574 | -2.36435 | 2108 ft | 103 kts | 193° |
| 2026-05-07 19:32 | 52.26872 | -2.36730 | 2083 ft | 105 kts | 195° |
| 2026-05-07 19:32 | 52.26152 | -2.37053 | 2017 ft | 108 kts | 195° |
| 2026-05-07 19:32 | 52.25438 | -2.37382 | 1992 ft | 107 kts | 196° |
| 2026-05-07 19:32 | 52.24721 | -2.37703 | 1994 ft | 104 kts | 194° |
| 2026-05-07 19:33 | 52.24023 | -2.37981 | 2005 ft | 103 kts | 193° |
| 2026-05-07 19:33 | 52.23323 | -2.38234 | 2002 ft | 102 kts | 192° |
| 2026-05-07 19:33 | 52.22618 | -2.38502 | 1977 ft | 104 kts | 193° |
| 2026-05-07 19:33 | 52.21912 | -2.38781 | 1972 ft | 104 kts | 195° |
| 2026-05-07 19:34 | 52.21212 | -2.39068 | 1963 ft | 104 kts | 194° |
| 2026-05-07 19:34 | 52.20502 | -2.39364 | 1963 ft | 103 kts | 195° |
| 2026-05-07 19:34 | 52.19810 | -2.39668 | 1979 ft | 103 kts | 192° |
| 2026-05-07 19:34 | 52.19114 | -2.39877 | 1990 ft | 102 kts | 190° |
| 2026-05-07 19:35 | 52.18427 | -2.40148 | 2028 ft | 99 kts | 195° |
| 2026-05-07 19:35 | 52.17760 | -2.40454 | 2044 ft | 100 kts | 197° |
| 2026-05-07 19:35 | 52.17099 | -2.40793 | 2067 ft | 100 kts | 198° |
| 2026-05-07 19:35 | 52.16434 | -2.41111 | 2079 ft | 101 kts | 193° |
| 2026-05-07 19:36 | 52.15743 | -2.41365 | 2067 ft | 103 kts | 192° |
| 2026-05-07 19:36 | 52.15506 | -2.41447 | 2047 ft | 105 kts | 194° |